Time;durP1;ratioP1;P1;durP2;ratioP2;P2;SDS_P1;SDS_P2;PMS_P1;PMS_P2;Temp;Humidity;BMP_temperature;BMP_pressure;BME280_temperature;BME280_humidity;BME280_pressure;Samples;Min_cycle;Max_cycle;Signal;HPM_P1;HPM_P2
2023/06/25 00:01:31;;;;;;;0.65;0.63;;;15.60;99.90;;;;;;5043072;28;20052;-74
2023/06/25 00:03:56;;;;;;;2.60;0.65;;;15.30;99.90;;;;;;5045535;28;20056;-74
2023/06/25 00:06:22;;;;;;;0.35;0.35;;;15.40;99.90;;;;;;5045591;28;20099;-74
2023/06/25 00:08:49;;;;;;;0.20;0.10;;;15.40;99.90;;;;;;5045657;28;20544;-74
2023/06/25 00:11:14;;;;;;;2.03;0.75;;;15.30;99.90;;;;;;5045837;28;20049;-73
2023/06/25 00:13:40;;;;;;;1.33;1.02;;;15.30;99.90;;;;;;5045239;28;20083;-73
2023/06/25 00:16:07;;;;;;;5.65;2.30;;;15.30;99.90;;;;;;5045497;28;20465;-75
2023/06/25 00:18:33;;;;;;;0.75;0.70;;;15.40;99.90;;;;;;5045055;28;20045;-74
2023/06/25 00:21:00;;;;;;;0.63;0.30;;;15.40;99.90;;;;;;5045391;28;20061;-74
2023/06/25 00:23:26;;;;;;;0.73;0.45;;;15.40;99.90;;;;;;5045542;28;20049;-74
2023/06/25 00:25:51;;;;;;;0.57;0.10;;;15.30;99.90;;;;;;5045897;28;20056;-74
2023/06/25 00:28:17;;;;;;;0.30;0.20;;;15.20;99.90;;;;;;5045429;28;20045;-74
2023/06/25 00:30:43;;;;;;;0.10;0.10;;;15.10;99.90;;;;;;5045426;28;20421;-73
2023/06/25 00:33:08;;;;;;;1.73;0.40;;;15.00;99.90;;;;;;5044995;28;20151;-74
2023/06/25 00:35:49;;;;;;;0.82;0.80;;;14.90;99.90;;;;;;5045284;28;20110;-74
2023/06/25 00:38:15;;;;;;;0.10;0.10;;;14.90;99.90;;;;;;5044959;28;20056;-74
2023/06/25 00:40:41;;;;;;;0.77;0.52;;;14.90;99.90;;;;;;5045176;28;20128;-74
2023/06/25 00:43:06;;;;;;;0.88;0.43;;;14.90;99.90;;;;;;5044933;28;20059;-74
2023/06/25 00:45:33;;;;;;;0.43;0.43;;;14.90;99.90;;;;;;5044734;28;20045;-74
2023/06/25 00:47:59;;;;;;;0.60;0.13;;;14.90;99.90;;;;;;5044556;28;20140;-74
2023/06/25 00:50:25;;;;;;;0.17;0.15;;;14.80;99.90;;;;;;5045139;28;20041;-74
2023/06/25 00:52:51;;;;;;;0.57;0.40;;;14.80;99.90;;;;;;5045037;28;20099;-74
2023/06/25 00:55:19;;;;;;;0.17;0.17;;;14.80;99.90;;;;;;5045139;28;20062;-74
2023/06/25 00:57:44;;;;;;;0.47;0.28;;;14.80;99.90;;;;;;5044759;28;20043;-74
2023/06/25 01:00:16;;;;;;;0.47;0.47;;;14.70;99.90;;;;;;5044882;28;20124;-73
2023/06/25 01:03:12;;;;;;;0.60;0.43;;;14.70;99.90;;;;;;5044921;28;20045;-74
2023/06/25 01:05:57;;;;;;;0.17;0.17;;;14.60;99.90;;;;;;5045015;28;20049;-74
2023/06/25 01:08:28;;;;;;;1.40;0.35;;;14.70;99.90;;;;;;5044501;28;20133;-74
2023/06/25 01:10:55;;;;;;;0.17;0.17;;;14.70;99.90;;;;;;5045085;28;20119;-74
2023/06/25 01:13:21;;;;;;;0.17;0.17;;;14.70;99.90;;;;;;5043731;28;20049;-74
2023/06/25 01:15:47;;;;;;;9.85;0.75;;;14.70;99.90;;;;;;5044653;28;20048;-74
2023/06/25 01:18:13;;;;;;;0.90;0.77;;;14.60;99.90;;;;;;5044877;28;20061;-73
2023/06/25 01:20:40;;;;;;;2.33;1.50;;;14.80;99.90;;;;;;5044817;28;20392;-74
2023/06/25 01:23:09;;;;;;;0.43;0.43;;;14.90;99.90;;;;;;5044276;28;20128;-74
2023/06/25 01:25:38;;;;;;;1.05;0.80;;;14.80;99.90;;;;;;5044902;28;20055;-74
2023/06/25 01:28:07;;;;;;;0.03;0.03;;;14.70;99.90;;;;;;5044688;28;20060;-74
2023/06/25 01:30:33;;;;;;;4.47;1.48;;;14.80;99.90;;;;;;5045024;28;20041;-74
2023/06/25 01:32:58;;;;;;;0.93;0.80;;;14.80;99.90;;;;;;5044300;28;20045;-75
2023/06/25 01:35:25;;;;;;;0.28;0.28;;;14.80;99.90;;;;;;5044264;28;20040;-74
2023/06/25 01:37:50;;;;;;;0.90;0.80;;;14.70;99.90;;;;;;5043761;28;20512;-74
2023/06/25 01:40:16;;;;;;;0.95;0.57;;;14.60;99.90;;;;;;5044416;28;20071;-74
2023/06/25 01:42:43;;;;;;;1.40;1.15;;;14.60;99.90;;;;;;5044420;28;20049;-74
2023/06/25 01:45:09;;;;;;;0.25;0.25;;;14.60;99.90;;;;;;5044096;28;20047;-74
2023/06/25 01:47:37;;;;;;;1.40;1.00;;;14.60;99.90;;;;;;5043768;28;20450;-74
2023/06/25 01:50:03;;;;;;;1.90;1.70;;;14.60;99.90;;;;;;5043625;28;20045;-74
2023/06/25 01:52:29;;;;;;;2.95;1.30;;;14.70;99.90;;;;;;5043722;28;20052;-74
2023/06/25 01:54:55;;;;;;;1.25;0.70;;;14.70;99.90;;;;;;5043773;28;20083;-74
2023/06/25 01:57:21;;;;;;;0.63;0.57;;;14.70;99.90;;;;;;5043506;28;20064;-74
2023/06/25 01:59:46;;;;;;;1.80;1.05;;;14.60;99.90;;;;;;5044280;28;20500;-74
2023/06/25 02:02:12;;;;;;;1.10;0.70;;;14.60;99.90;;;;;;5043740;28;20109;-74
2023/06/25 02:04:38;;;;;;;0.98;0.70;;;14.60;99.90;;;;;;5043662;28;20102;-73
2023/06/25 02:07:04;;;;;;;0.70;0.50;;;14.70;99.90;;;;;;5043757;28;20057;-74
2023/06/25 02:09:29;;;;;;;0.57;0.47;;;14.70;99.90;;;;;;5043574;28;20044;-74
2023/06/25 02:11:55;;;;;;;0.80;0.57;;;14.60;99.90;;;;;;5043713;28;20045;-74
2023/06/25 02:14:21;;;;;;;2.22;0.32;;;14.60;99.90;;;;;;5043520;28;20400;-74
2023/06/25 02:16:46;;;;;;;0.95;0.57;;;14.60;99.90;;;;;;5043138;28;20081;-74
2023/06/25 02:19:12;;;;;;;3.83;1.05;;;14.60;99.90;;;;;;5042997;28;20099;-74
2023/06/25 02:21:38;;;;;;;1.10;0.68;;;14.70;99.90;;;;;;5042952;28;20041;-74
2023/06/25 02:24:04;;;;;;;2.53;1.20;;;14.60;99.90;;;;;;5043057;28;20041;-74
2023/06/25 02:26:29;;;;;;;2.08;0.73;;;14.50;99.90;;;;;;5043131;28;20461;-74
2023/06/25 02:28:55;;;;;;;0.28;0.22;;;14.50;99.90;;;;;;5043114;28;20041;-74
2023/06/25 02:31:21;;;;;;;2.17;1.52;;;14.50;99.90;;;;;;5043111;28;20068;-74
2023/06/25 02:33:47;;;;;;;1.13;0.77;;;14.50;99.90;;;;;;5042859;28;20048;-74
2023/06/25 02:36:13;;;;;;;1.33;1.05;;;14.40;99.90;;;;;;5043086;28;20362;-75
2023/06/25 02:38:38;;;;;;;0.80;0.65;;;14.40;99.90;;;;;;5043014;28;20048;-74
2023/06/25 02:41:04;;;;;;;0.60;0.60;;;14.40;99.90;;;;;;5042893;28;20041;-74
2023/06/25 02:43:29;;;;;;;1.67;1.10;;;14.50;99.90;;;;;;5043401;28;20040;-75
2023/06/25 02:45:55;;;;;;;0.73;0.50;;;14.40;99.90;;;;;;5042749;28;20167;-74
2023/06/25 02:48:21;;;;;;;2.25;1.40;;;14.40;99.90;;;;;;5043124;28;20436;-74
2023/06/25 02:50:46;;;;;;;1.73;1.30;;;14.40;99.90;;;;;;5043045;28;20491;-74
2023/06/25 02:53:12;;;;;;;9.75;1.13;;;14.40;99.90;;;;;;5042896;28;20041;-74
2023/06/25 02:55:38;;;;;;;1.48;1.20;;;14.50;99.90;;;;;;5042800;28;20193;-74
2023/06/25 02:58:03;;;;;;;0.88;0.80;;;14.40;99.90;;;;;;5043059;28;20048;-74
2023/06/25 03:00:29;;;;;;;5.00;1.75;;;14.60;99.90;;;;;;5043133;28;20056;-74
2023/06/25 03:02:55;;;;;;;0.55;0.55;;;14.30;99.90;;;;;;5042662;28;20709;-74
2023/06/25 03:05:21;;;;;;;1.05;0.80;;;14.30;99.90;;;;;;5042920;28;20051;-74
2023/06/25 03:07:55;;;;;;;7.53;1.95;;;14.30;99.90;;;;;;5043116;28;20041;-75
2023/06/25 03:10:24;;;;;;;0.55;0.45;;;14.30;99.90;;;;;;5042914;28;20049;-74
2023/06/25 03:12:50;;;;;;;2.42;1.48;;;14.20;99.90;;;;;;5042974;28;20052;-74
2023/06/25 03:15:17;;;;;;;0.55;0.55;;;14.30;99.90;;;;;;5042719;28;20103;-74
2023/06/25 03:17:43;;;;;;;0.20;0.20;;;14.30;99.90;;;;;;5042970;28;20106;-74
2023/06/25 03:20:10;;;;;;;1.33;1.17;;;14.30;99.90;;;;;;5042331;28;20136;-74
2023/06/25 03:22:36;;;;;;;1.27;0.65;;;14.20;99.90;;;;;;5042521;28;20171;-73
2023/06/25 03:25:03;;;;;;;0.88;0.73;;;14.20;99.90;;;;;;5042577;28;20167;-74
2023/06/25 03:27:30;;;;;;;2.17;1.63;;;14.30;99.90;;;;;;5042631;28;20075;-74
2023/06/25 03:29:55;;;;;;;1.17;0.75;;;14.30;99.90;;;;;;5042592;28;20076;-74
2023/06/25 03:32:21;;;;;;;1.10;0.98;;;14.20;99.90;;;;;;5042402;28;20072;-74
2023/06/25 03:34:46;;;;;;;1.63;1.27;;;14.30;99.90;;;;;;5042644;28;20045;-74
2023/06/25 03:37:12;;;;;;;1.10;1.00;;;14.30;99.90;;;;;;5044660;28;20041;-74
2023/06/25 03:39:38;;;;;;;1.00;0.90;;;14.40;99.90;;;;;;5046377;28;20373;-74
2023/06/25 03:42:04;;;;;;;1.25;0.93;;;14.40;99.90;;;;;;5046537;28;20124;-74
2023/06/25 03:44:29;;;;;;;2.10;1.08;;;14.40;99.90;;;;;;5046413;28;20048;-74
2023/06/25 03:46:55;;;;;;;2.63;1.63;;;14.50;99.90;;;;;;5046217;28;20594;-74
2023/06/25 03:49:20;;;;;;;1.73;1.25;;;14.60;99.90;;;;;;5045632;28;20080;-74
2023/06/25 03:51:46;;;;;;;2.67;2.38;;;14.60;99.90;;;;;;5046161;28;20053;-74
2023/06/25 03:54:12;;;;;;;2.88;1.02;;;14.80;99.90;;;;;;5046141;28;20492;-74
2023/06/25 03:56:37;;;;;;;1.98;1.58;;;14.80;99.90;;;;;;5046182;28;20048;-74
2023/06/25 03:59:03;;;;;;;4.78;2.05;;;14.80;99.90;;;;;;5045741;28;20439;-74
2023/06/25 04:01:28;;;;;;;5.82;2.38;;;14.90;99.90;;;;;;5045941;28;20091;-74
2023/06/25 04:03:54;;;;;;;2.03;1.55;;;14.90;99.90;;;;;;5046209;28;20178;-74
2023/06/25 04:06:20;;;;;;;6.43;1.92;;;15.00;99.90;;;;;;5045941;28;20049;-74
2023/06/25 04:08:46;;;;;;;0.63;0.50;;;15.10;99.90;;;;;;5045531;28;20044;-74
2023/06/25 04:11:12;;;;;;;1.77;1.05;;;15.10;99.90;;;;;;5046011;28;20584;-74
2023/06/25 04:13:37;;;;;;;2.33;1.45;;;15.20;99.90;;;;;;5045828;28;20048;-75
2023/06/25 04:16:03;;;;;;;1.45;1.05;;;15.20;99.90;;;;;;5045956;28;20045;-74
2023/06/25 04:18:29;;;;;;;3.75;1.63;;;15.30;99.90;;;;;;5045683;28;20128;-74
2023/06/25 04:20:55;;;;;;;4.25;1.55;;;15.40;99.90;;;;;;5045520;28;20045;-74
2023/06/25 04:23:21;;;;;;;1.17;1.00;;;15.50;99.90;;;;;;5045924;28;20415;-74
2023/06/25 04:25:46;;;;;;;6.55;1.90;;;15.60;99.90;;;;;;5045551;28;20052;-75
2023/06/25 04:28:16;;;;;;;3.65;2.65;;;15.70;99.90;;;;;;5045635;28;20127;-74
2023/06/25 04:30:42;;;;;;;5.15;1.98;;;15.80;99.90;;;;;;5045614;28;21040;-74
2023/06/25 04:33:08;;;;;;;4.15;1.27;;;16.00;99.90;;;;;;5045418;28;20041;-74
2023/06/25 04:35:34;;;;;;;2.83;1.60;;;16.10;99.90;;;;;;5045342;28;20541;-74
2023/06/25 04:37:59;;;;;;;2.78;1.92;;;16.40;99.90;;;;;;5045195;28;20580;-74
2023/06/25 04:40:25;;;;;;;2.05;1.40;;;16.40;99.90;;;;;;5045494;28;20098;-74
2023/06/25 04:42:51;;;;;;;0.70;0.47;;;16.50;99.90;;;;;;5045227;28;20094;-74
2023/06/25 04:45:18;;;;;;;1.55;1.45;;;16.50;99.90;;;;;;5045060;28;20157;-74
2023/06/25 04:47:44;;;;;;;2.67;1.30;;;16.60;99.90;;;;;;5045087;28;20049;-75
2023/06/25 04:50:10;;;;;;;2.17;1.60;;;16.70;99.90;;;;;;5045284;28;20071;-75
2023/06/25 04:52:35;;;;;;;2.25;1.02;;;16.90;99.90;;;;;;5045359;28;20048;-75
2023/06/25 04:55:01;;;;;;;1.10;1.02;;;17.40;99.90;;;;;;5045027;28;20647;-75
2023/06/25 04:57:26;;;;;;;3.13;2.50;;;18.00;99.90;;;;;;5045207;28;20048;-74
2023/06/25 04:59:52;;;;;;;2.20;1.30;;;18.70;14.40;;;;;;5043646;28;20147;-74
2023/06/25 05:02:18;;;;;;;2.25;1.80;;;19.30;1.00;;;;;;5044097;28;20037;-74
2023/06/25 05:04:44;;;;;;;6.53;2.42;;;19.70;99.90;;;;;;5043798;28;20049;-74
2023/06/25 05:07:10;;;;;;;1.33;0.88;;;20.10;99.90;;;;;;5043923;28;20088;-74
2023/06/25 05:09:35;;;;;;;1.75;1.52;;;20.60;1.00;;;;;;5043530;28;20496;-74
2023/06/25 05:12:01;;;;;;;2.55;1.95;;;21.20;98.10;;;;;;5044079;28;20102;-75
2023/06/25 05:14:27;;;;;;;1.40;0.98;;;21.40;99.90;;;;;;5043997;28;20415;-75
2023/06/25 05:16:53;;;;;;;2.03;1.33;;;21.50;96.90;;;;;;5043555;28;20175;-75
2023/06/25 05:19:18;;;;;;;1.58;1.48;;;21.90;99.90;;;;;;5043550;28;20132;-75
2023/06/25 05:21:44;;;;;;;2.42;2.15;;;22.50;1.00;;;;;;5043780;28;20048;-75
2023/06/25 05:24:10;;;;;;;0.80;0.65;;;21.80;99.90;;;;;;5043814;28;20395;-75
2023/06/25 05:26:35;;;;;;;7.18;1.10;;;22.50;99.90;;;;;;5043406;28;20117;-75
2023/06/25 05:29:02;;;;;;;7.32;1.10;;;22.90;99.90;;;;;;5025833;28;20771;-75
2023/06/25 05:31:28;;;;;;;1.08;1.00;;;22.70;99.90;;;;;;5043635;28;20049;-75
2023/06/25 05:33:54;;;;;;;1.85;1.27;;;23.00;99.90;;;;;;5043462;28;20049;-75
2023/06/25 05:36:23;;;;;;;1.55;1.30;;;22.80;99.90;;;;;;5043550;28;20367;-75
2023/06/25 05:38:49;;;;;;;3.03;1.70;;;23.00;99.90;;;;;;5042935;28;20091;-75
2023/06/25 05:41:15;;;;;;;1.10;0.90;;;23.20;94.30;;;;;;5043727;28;20545;-75
2023/06/25 05:43:40;;;;;;;0.82;0.63;;;23.10;24.30;;;;;;5042990;28;20049;-75
2023/06/25 05:46:11;;;;;;;1.77;1.40;;;23.60;99.90;;;;;;5043245;28;20053;-75
2023/06/25 05:48:38;;;;;;;0.63;0.55;;;24.20;8.30;;;;;;5025403;28;20490;-75
2023/06/25 05:51:04;;;;;;;0.70;0.63;;;24.10;1.00;;;;;;5043114;28;20226;-75
2023/06/25 05:53:41;;;;;;;0.50;0.50;;;24.60;1.00;;;;;;5043135;28;20550;-75
2023/06/25 05:56:07;;;;;;;2.05;0.90;;;25.10;1.00;;;;;;5042836;28;20049;-75
2023/06/25 05:58:36;;;;;;;1.35;1.17;;;25.10;1.00;;;;;;5042665;28;20044;-75
2023/06/25 06:01:04;;;;;;;1.13;0.80;;;25.30;1.00;;;;;;5042877;28;20101;-75
2023/06/25 06:03:29;;;;;;;3.38;1.83;;;25.70;99.90;;;;;;5043220;28;20477;-75
2023/06/25 06:05:57;;;;;;;1.40;0.90;;;25.20;99.90;;;;;;5042918;28;20040;-75
2023/06/25 06:08:23;;;;;;;1.45;0.93;;;25.00;99.90;;;;;;5042794;28;20045;-75
2023/06/25 06:10:48;;;;;;;1.58;0.63;;;24.90;99.90;;;;;;5043155;28;20048;-75
2023/06/25 06:13:15;;;;;;;4.78;1.05;;;25.40;99.90;;;;;;5042877;28;20045;-75
2023/06/25 06:15:40;;;;;;;0.35;0.35;;;26.00;99.90;;;;;;5042894;28;20044;-75
2023/06/25 06:18:06;;;;;;;1.02;0.82;;;26.40;99.90;;;;;;5042531;28;20049;-75
2023/06/25 06:20:32;;;;;;;0.93;0.70;;;26.00;99.90;;;;;;5042785;28;20605;-75
2023/06/25 06:22:58;;;;;;;1.10;0.90;;;26.20;99.90;;;;;;5042509;28;20384;-75
2023/06/25 06:25:25;;;;;;;0.52;0.50;;;26.70;99.90;;;;;;5041002;28;20059;-75
2023/06/25 06:27:52;;;;;;;1.02;0.57;;;27.50;99.90;;;;;;5042596;28;20087;-75
2023/06/25 06:30:18;;;;;;;1.15;0.90;;;27.50;99.90;;;;;;5042541;28;20080;-75
2023/06/25 06:32:43;;;;;;;2.22;1.10;;;27.50;99.90;;;;;;5041795;28;20126;-74
2023/06/25 06:35:09;;;;;;;1.48;1.05;;;27.20;99.90;;;;;;5042167;28;20658;-74
2023/06/25 06:37:35;;;;;;;2.00;1.00;;;27.20;99.90;;;;;;5041884;28;20052;-72
2023/06/25 06:40:01;;;;;;;3.13;1.52;;;27.40;99.90;;;;;;5042019;28;20044;-72
2023/06/25 06:42:27;;;;;;;2.60;1.35;;;27.00;99.90;;;;;;5042231;28;20353;-72
2023/06/25 06:44:52;;;;;;;1.52;1.13;;;27.40;99.90;;;;;;5041987;28;20048;-72
2023/06/25 06:47:18;;;;;;;21.20;1.65;;;27.30;99.90;;;;;;5042157;28;20052;-72
2023/06/25 06:49:44;;;;;;;0.65;0.38;;;27.30;99.90;;;;;;5043246;28;20102;-72
2023/06/25 06:52:09;;;;;;;1.45;1.20;;;28.20;99.90;;;;;;5043205;28;20052;-72
2023/06/25 06:54:35;;;;;;;0.57;0.57;;;28.10;99.90;;;;;;5043033;28;20044;-72
2023/06/25 06:57:00;;;;;;;5.00;2.13;;;27.10;99.90;;;;;;5043418;28;20088;-72
2023/06/25 06:59:26;;;;;;;0.77;0.60;;;27.10;99.90;;;;;;5043328;28;20045;-72
2023/06/25 07:01:52;;;;;;;0.20;0.20;;;27.40;99.90;;;;;;5042970;28;20522;-72
2023/06/25 07:04:18;;;;;;;0.65;0.45;;;28.40;99.90;;;;;;5043230;28;20063;-71
2023/06/25 07:06:43;;;;;;;1.05;0.70;;;28.50;99.90;;;;;;5042428;28;20049;-71
2023/06/25 07:09:09;;;;;;;1.85;0.98;;;28.50;99.90;;;;;;5042373;28;20092;-72
2023/06/25 07:11:34;;;;;;;2.30;1.27;;;28.30;99.90;;;;;;5025894;28;20049;-72
2023/06/25 07:14:00;;;;;;;1.55;0.77;;;28.50;99.90;;;;;;5046744;28;20084;-73
2023/06/25 07:16:26;;;;;;;4.78;2.05;;;28.90;99.90;;;;;;5046739;28;20049;-72
2023/06/25 07:18:52;;;;;;;0.75;0.60;;;28.80;99.90;;;;;;5045413;28;20064;-73
2023/06/25 07:21:17;;;;;;;0.60;0.50;;;28.70;99.90;;;;;;5047239;28;20562;-73
2023/06/25 07:23:43;;;;;;;0.50;0.47;;;29.50;99.90;;;;;;5046559;28;20199;-73
2023/06/25 07:26:09;;;;;;;0.90;0.82;;;30.10;99.90;;;;;;5046936;28;20403;-73
2023/06/25 07:28:34;;;;;;;1.40;0.63;;;29.50;99.90;;;;;;5046820;28;20492;-73
2023/06/25 07:31:00;;;;;;;2.72;1.65;;;30.80;99.90;;;;;;5047000;28;20699;-73
2023/06/25 07:33:26;;;;;;;1.08;0.90;;;30.10;89.20;;;;;;5046420;28;20053;-74
2023/06/25 07:35:51;;;;;;;1.55;1.42;;;30.30;82.00;;;;;;5044722;28;20052;-73
2023/06/25 07:38:17;;;;;;;1.15;1.05;;;29.90;64.40;;;;;;5044818;28;20045;-73
2023/06/25 07:40:42;;;;;;;0.60;0.52;;;30.90;99.90;;;;;;5046554;28;20945;-73
2023/06/25 07:43:08;;;;;;;0.20;0.20;;;31.00;99.90;;;;;;5046515;28;20060;-73
2023/06/25 07:45:34;;;;;;;0.75;0.63;;;31.20;99.90;;;;;;5045908;28;20535;-73
2023/06/25 07:47:59;;;;;;;1.02;0.90;;;30.90;15.90;;;;;;5045756;28;20080;-73
2023/06/25 07:50:25;;;;;;;1.88;1.00;;;30.90;1.00;;;;;;5046118;28;20132;-73
2023/06/25 07:52:51;;;;;;;1.85;1.27;;;31.60;28.50;;;;;;5045672;28;20091;-73
2023/06/25 07:55:17;;;;;;;1.13;0.95;;;32.60;1.00;;;;;;5044625;28;20111;-73
2023/06/25 07:57:42;;;;;;;1.10;0.75;;;31.30;1.00;;;;;;5045007;28;20045;-73
2023/06/25 08:00:09;;;;;;;1.17;0.98;;;32.60;1.00;;;;;;5044913;28;20045;-73
2023/06/25 08:02:35;;;;;;;1.80;1.05;;;31.40;1.00;;;;;;5044332;28;20045;-72
2023/06/25 08:05:00;;;;;;;0.47;0.30;;;31.40;1.00;;;;;;5044760;28;20295;-73
2023/06/25 08:07:26;;;;;;;1.13;0.75;;;32.00;1.00;;;;;;5044756;28;20483;-73
2023/06/25 08:09:51;;;;;;;1.52;0.82;;;31.70;1.00;;;;;;5044461;28;20041;-73
2023/06/25 08:12:17;;;;;;;1.30;1.13;;;32.10;1.00;;;;;;5044302;28;20495;-73
2023/06/25 08:14:43;;;;;;;1.45;1.08;;;32.10;99.90;;;;;;5043983;28;20044;-73
2023/06/25 08:17:08;;;;;;;1.90;0.95;;;33.10;1.00;;;;;;5044478;28;20045;-73
2023/06/25 08:19:34;;;;;;;3.05;1.45;;;33.20;99.90;;;;;;5044354;28;20049;-73
2023/06/25 08:22:00;;;;;;;1.80;0.75;;;33.10;99.90;;;;;;5043851;28;20049;-73
2023/06/25 08:24:25;;;;;;;0.45;0.32;;;33.40;99.90;;;;;;5044367;28;20045;-73
2023/06/25 08:26:51;;;;;;;0.57;0.47;;;34.50;99.90;;;;;;5044813;28;20047;-73
2023/06/25 08:29:17;;;;;;;0.30;0.30;;;35.20;99.90;;;;;;5044446;28;20553;-73
2023/06/25 08:31:42;;;;;;;2.15;1.02;;;34.50;99.90;;;;;;5044234;28;20047;-73
2023/06/25 08:34:08;;;;;;;0.45;0.45;;;33.70;99.90;;;;;;5044419;28;20057;-73
2023/06/25 08:36:33;;;;;;;0.70;0.50;;;32.60;99.90;;;;;;5044514;28;20061;-73
2023/06/25 08:38:59;;;;;;;2.05;0.73;;;33.70;99.90;;;;;;5044047;28;20043;-73
2023/06/25 08:41:26;;;;;;;0.90;0.90;;;33.70;99.90;;;;;;5044442;28;20049;-72
2023/06/25 08:43:55;;;;;;;0.73;0.57;;;34.00;99.90;;;;;;5044088;28;20187;-73
2023/06/25 08:46:24;;;;;;;0.30;0.30;;;33.80;99.90;;;;;;5044176;28;20049;-72
2023/06/25 08:48:54;;;;;;;0.47;0.40;;;33.10;99.90;;;;;;5044054;28;20491;-72
2023/06/25 08:51:24;;;;;;;0.65;0.50;;;33.10;99.90;;;;;;5043752;28;20482;-72
2023/06/25 08:53:50;;;;;;;0.35;0.35;;;34.80;99.90;;;;;;5044918;28;20045;-72
2023/06/25 08:56:16;;;;;;;1.55;0.47;;;35.70;99.90;;;;;;5045802;28;21055;-73
2023/06/25 08:58:43;;;;;;;1.27;0.90;;;36.60;99.90;;;;;;5040971;28;20068;-74
2023/06/25 09:01:12;;;;;;;1.13;0.95;;;35.80;99.90;;;;;;5025311;28;20088;-74
2023/06/25 09:03:41;;;;;;;1.40;0.70;;;35.30;99.90;;;;;;5025252;28;20045;-74
2023/06/25 09:06:15;;;;;;;0.43;0.40;;;35.30;99.90;;;;;;5023896;28;20688;-75
2023/06/25 09:08:42;;;;;;;2.80;1.05;;;35.00;99.90;;;;;;5023487;28;20101;-74
2023/06/25 09:11:08;;;;;;;0.75;0.30;;;34.50;90.20;;;;;;5024424;28;20053;-74
2023/06/25 09:13:34;;;;;;;0.55;0.35;;;35.20;99.90;;;;;;5025439;28;20053;-75
2023/06/25 09:16:02;;;;;;;1.48;0.80;;;35.00;99.90;;;;;;5024929;28;20381;-74
2023/06/25 09:18:29;;;;;;;1.30;0.90;;;35.00;99.90;;;;;;5025478;28;20076;-74
2023/06/25 09:20:56;;;;;;;1.55;0.57;;;35.20;93.70;;;;;;5024571;28;20348;-75
2023/06/25 09:23:23;;;;;;;0.95;0.82;;;35.00;90.00;;;;;;5023511;28;20541;-76
2023/06/25 09:25:53;;;;;;;0.68;0.43;;;35.10;88.00;;;;;;5023504;28;20076;-76
2023/06/25 09:28:19;;;;;;;0.43;0.32;;;34.10;34.60;;;;;;5023294;28;20085;-76
2023/06/25 09:30:46;;;;;;;0.45;0.45;;;34.70;87.90;;;;;;5023324;28;20050;-76
2023/06/25 09:33:12;;;;;;;4.93;0.63;;;34.10;34.80;;;;;;5023253;28;20049;-76
2023/06/25 09:35:41;;;;;;;0.40;0.40;;;35.00;39.00;;;;;;5022724;28;20048;-76
2023/06/25 09:38:07;;;;;;;0.95;0.65;;;35.30;15.10;;;;;;5023110;28;20041;-76
2023/06/25 09:40:33;;;;;;;0.93;0.63;;;35.20;54.20;;;;;;5024867;28;20207;-76
2023/06/25 09:43:00;;;;;;;1.35;0.40;;;36.40;59.10;;;;;;5024944;28;20073;-75
2023/06/25 09:45:27;;;;;;;0.38;0.38;;;35.50;1.00;;;;;;5033639;28;20148;-76
2023/06/25 09:47:54;;;;;;;1.15;0.98;;;35.90;1.00;;;;;;5042701;28;20482;-77
2023/06/25 09:50:44;;;;;;;0.20;0.20;;;36.30;1.00;;;;;;5043412;28;20125;-76
2023/06/25 09:53:21;;;;;;;3.45;0.77;;;36.00;1.00;;;;;;5042587;28;20111;-76
2023/06/25 09:55:48;;;;;;;1.67;0.63;;;35.40;1.00;;;;;;5042708;28;20124;-76
2023/06/25 09:58:15;;;;;;;0.25;0.25;;;35.50;1.00;;;;;;5042471;28;20445;-76
2023/06/25 10:00:41;;;;;;;0.47;0.47;;;34.60;1.00;;;;;;5042892;28;20049;-76
2023/06/25 10:03:07;;;;;;;0.65;0.35;;;34.10;1.00;;;;;;5042601;28;20049;-77
2023/06/25 10:05:33;;;;;;;0.55;0.47;;;34.00;1.00;;;;;;5042301;28;20064;-76
2023/06/25 10:07:59;;;;;;;0.93;0.75;;;34.30;1.00;;;;;;5042305;28;20045;-76
2023/06/25 10:10:29;;;;;;;2.33;1.08;;;33.70;1.00;;;;;;5041197;28;20427;-75
2023/06/25 10:12:55;;;;;;;0.63;0.50;;;34.10;1.00;;;;;;5040414;28;20053;-75
2023/06/25 10:15:36;;;;;;;0.60;0.35;;;34.20;1.00;;;;;;5038357;28;20051;-75
2023/06/25 10:18:06;;;;;;;1.13;0.88;;;34.10;1.00;;;;;;5038994;28;20408;-75
2023/06/25 10:20:43;;;;;;;3.95;1.23;;;33.90;1.00;;;;;;5039598;28;20052;-76
2023/06/25 10:23:13;;;;;;;2.50;1.08;;;33.10;1.00;;;;;;5042510;28;20191;-77
2023/06/25 10:26:00;;;;;;;1.88;1.00;;;33.00;1.00;;;;;;5042958;28;20063;-76
2023/06/25 10:28:37;;;;;;;2.60;1.13;;;32.30;1.00;;;;;;5042929;28;20080;-76
2023/06/25 10:31:15;;;;;;;1.77;1.08;;;32.50;1.00;;;;;;5040764;28;20088;-73
2023/06/25 10:33:42;;;;;;;0.55;0.55;;;32.60;1.00;;;;;;5039876;28;20128;-73
2023/06/25 10:36:08;;;;;;;1.25;0.98;;;33.10;1.00;;;;;;5038687;28;20044;-73
2023/06/25 10:38:34;;;;;;;2.13;0.90;;;33.30;1.00;;;;;;5037825;28;20040;-73
2023/06/25 10:41:00;;;;;;;0.40;0.38;;;33.60;1.00;;;;;;5040337;28;20051;-73
2023/06/25 10:43:26;;;;;;;0.75;0.40;;;33.60;1.00;;;;;;5039095;28;20396;-74
2023/06/25 10:45:54;;;;;;;0.50;0.20;;;33.70;1.00;;;;;;5038772;28;20053;-73
2023/06/25 10:48:20;;;;;;;1.00;0.50;;;33.00;1.00;;;;;;5039754;28;20048;-73
2023/06/25 10:50:47;;;;;;;1.67;0.55;;;33.10;1.00;;;;;;5039458;28;20091;-73
2023/06/25 10:53:17;;;;;;;2.30;0.90;;;33.20;1.00;;;;;;5039251;28;20511;-74
2023/06/25 10:55:44;;;;;;;0.43;0.30;;;33.10;1.00;;;;;;5039609;28;20040;-75
2023/06/25 10:58:15;;;;;;;1.27;0.82;;;33.10;1.00;;;;;;5041584;28;20049;-75
2023/06/25 11:00:41;;;;;;;0.22;0.20;;;33.30;1.00;;;;;;5042163;28;20049;-74
2023/06/25 11:03:07;;;;;;;0.85;0.65;;;33.00;1.00;;;;;;5042360;28;20051;-75
2023/06/25 11:05:35;;;;;;;0.90;0.32;;;32.60;99.90;;;;;;5042746;28;20045;-75
2023/06/25 11:08:04;;;;;;;1.85;0.40;;;33.00;1.00;;;;;;5041895;28;20127;-74
2023/06/25 11:10:31;;;;;;;0.32;0.28;;;33.20;1.00;;;;;;5038996;28;20085;-75
2023/06/25 11:12:58;;;;;;;0.63;0.63;;;33.00;99.90;;;;;;5038661;28;20387;-74
2023/06/25 11:15:23;;;;;;;1.17;0.50;;;32.40;99.90;;;;;;5039293;28;20588;-75
2023/06/25 11:17:53;;;;;;;0.98;0.68;;;32.60;1.00;;;;;;5039245;28;20059;-75
2023/06/25 11:20:23;;;;;;;2.72;0.52;;;33.30;1.00;;;;;;5039238;28;20057;-74
2023/06/25 11:22:49;;;;;;;0.05;0.05;;;33.90;99.90;;;;;;5021561;28;20060;-74
2023/06/25 11:25:15;;;;;;;1.23;0.40;;;34.10;99.90;;;;;;5038747;28;20275;-75
2023/06/25 11:27:41;;;;;;;0.38;0.38;;;34.50;99.90;;;;;;5038991;28;20045;-75
2023/06/25 11:30:08;;;;;;;0.38;0.30;;;34.70;1.00;;;;;;5039210;28;20037;-74
2023/06/25 11:32:37;;;;;;;1.00;0.63;;;33.60;99.90;;;;;;5039374;28;20057;-75
2023/06/25 11:35:13;;;;;;;0.85;0.38;;;33.60;99.90;;;;;;5039316;28;20045;-74
2023/06/25 11:37:47;;;;;;;0.43;0.20;;;34.70;99.90;;;;;;5038785;28;20056;-73
2023/06/25 11:40:28;;;;;;;0.65;0.13;;;35.50;99.90;;;;;;5039262;28;20049;-74
2023/06/25 11:42:54;;;;;;;0.82;0.45;;;36.10;99.90;;;;;;5039193;28;20053;-75
2023/06/25 11:45:21;;;;;;;0.28;0.22;;;36.40;99.90;;;;;;5038988;28;20063;-72
2023/06/25 11:47:53;;;;;;;0.17;0.15;;;36.80;99.90;;;;;;5038731;28;20452;-73
2023/06/25 11:50:24;;;;;;;0.47;0.45;;;37.30;99.90;;;;;;5038686;28;20091;-74
2023/06/25 11:52:54;;;;;;;0.40;0.40;;;37.90;99.90;;;;;;5038627;28;20051;-74
2023/06/25 11:55:23;;;;;;;0.20;0.20;;;38.50;99.90;;;;;;5038261;28;20072;-74
2023/06/25 11:57:49;;;;;;;0.98;0.25;;;38.30;99.90;;;;;;5039751;28;20558;-73
2023/06/25 12:00:15;;;;;;;0.20;0.15;;;38.50;99.90;;;;;;5042471;28;20049;-73
2023/06/25 12:02:41;;;;;;;1.10;0.32;;;38.10;99.90;;;;;;5042433;28;20052;-73
2023/06/25 12:05:07;;;;;;;0.22;0.20;;;38.80;99.90;;;;;;5042702;28;20481;-73
2023/06/25 12:07:33;;;;;;;0.10;0.10;;;39.20;99.90;;;;;;5042374;28;20060;-73
2023/06/25 12:09:58;;;;;;;1.05;0.52;;;38.50;99.90;;;;;;5042538;28;20052;-73
2023/06/25 12:12:24;;;;;;;0.30;0.30;;;38.60;99.90;;;;;;5042168;28;20506;-74
2023/06/25 12:14:50;;;;;;;0.13;0.13;;;39.20;99.90;;;;;;5042409;28;20044;-75
2023/06/25 12:17:16;;;;;;;0.65;0.20;;;38.80;99.90;;;;;;5041885;28;20084;-73
2023/06/25 12:19:42;;;;;;;0.32;0.32;;;39.30;99.90;;;;;;5041624;28;20126;-73
2023/06/25 12:22:08;;;;;;;0.10;0.10;;;38.20;99.90;;;;;;5042094;28;20057;-73
2023/06/25 12:24:34;;;;;;;0.20;0.13;;;38.60;99.90;;;;;;5042446;28;20051;-74
2023/06/25 12:27:00;;;;;;;1.00;0.52;;;38.60;99.90;;;;;;5042238;28;20379;-73
2023/06/25 12:29:25;;;;;;;0.10;0.10;;;39.30;99.90;;;;;;5044277;28;20053;-73
2023/06/25 12:31:51;;;;;;;0.85;0.65;;;39.60;99.90;;;;;;5044752;28;20041;-73
2023/06/25 12:34:17;;;;;;;0.75;0.45;;;39.90;99.90;;;;;;5044425;28;20127;-73
2023/06/25 12:36:43;;;;;;;0.20;0.13;;;39.30;99.90;;;;;;5044386;28;20049;-73
2023/06/25 12:39:08;;;;;;;0.40;0.40;;;39.10;99.90;;;;;;5025089;28;20047;-73
2023/06/25 12:41:34;;;;;;;0.55;0.35;;;39.00;99.90;;;;;;5042742;28;20037;-73
2023/06/25 12:44:00;;;;;;;0.45;0.38;;;39.40;99.90;;;;;;5042549;28;20041;-73
2023/06/25 12:46:25;;;;;;;0.10;0.10;;;39.50;99.90;;;;;;5042587;28;20590;-73